Time,TemperatureF,DewpointF,PressureIn,WindDirection,WindDirectionDegrees,WindSpeedMPH,WindSpeedGustMPH,Humidity,HourlyPrecipIn,Conditions,Clouds,dailyrainin,SoftwareType,DateUTC
2013-11-23 00:01:00,-999.0,-99.9,30.14,North,5,9.0,-999.0,-999,-99.99,,,0.00,weatherlink.com 1.10,2013-11-23 05:01:00,
2013-11-23 00:16:00,-999.0,-99.9,30.13,North,5,6.0,-999.0,-999,-99.99,,,0.00,weatherlink.com 1.10,2013-11-23 05:16:00,
2013-11-23 00:31:00,-999.0,-99.9,30.13,North,5,6.0,-999.0,-999,-99.99,,,0.00,weatherlink.com 1.10,2013-11-23 05:31:00,
2013-11-23 00:46:00,-999.0,-99.9,30.12,North,5,5.0,-999.0,-999,-99.99,,,0.00,weatherlink.com 1.10,2013-11-23 05:46:00,
2013-11-23 01:01:00,-999.0,-99.9,30.12,North,5,7.0,-999.0,-999,-99.99,,,0.00,weatherlink.com 1.10,2013-11-23 06:01:00,
2013-11-23 01:16:00,-999.0,-99.9,30.11,North,5,6.0,-999.0,-999,-99.99,,,0.00,weatherlink.com 1.10,2013-11-23 06:16:00,
2013-11-23 01:31:00,-999.0,-99.9,30.11,North,5,5.0,-999.0,-999,-99.99,,,0.00,weatherlink.com 1.10,2013-11-23 06:31:00,
2013-11-23 01:46:00,-999.0,-99.9,30.11,North,5,5.0,-999.0,-999,-99.99,,,0.00,weatherlink.com 1.10,2013-11-23 06:46:00,
2013-11-23 02:02:00,-999.0,-99.9,30.11,North,5,9.0,-999.0,-999,-99.99,,,0.00,weatherlink.com 1.10,2013-11-23 07:02:00,
2013-11-23 02:17:00,-999.0,-99.9,30.11,North,5,8.0,-999.0,-999,-99.99,,,0.00,weatherlink.com 1.10,2013-11-23 07:17:00,
2013-11-23 02:32:00,-999.0,-99.9,30.10,North,5,8.0,-999.0,-999,-99.99,,,0.00,weatherlink.com 1.10,2013-11-23 07:32:00,
2013-11-23 02:47:00,-999.0,-99.9,30.10,North,5,6.0,-999.0,-999,-99.99,,,0.00,weatherlink.com 1.10,2013-11-23 07:47:00,
2013-11-23 03:02:00,-999.0,-99.9,30.10,North,5,5.0,-999.0,-999,-99.99,,,0.00,weatherlink.com 1.10,2013-11-23 08:02:00,
2013-11-23 03:17:00,-999.0,-99.9,30.09,North,5,6.0,-999.0,-999,-99.99,,,0.00,weatherlink.com 1.10,2013-11-23 08:17:00,
2013-11-23 03:32:00,-999.0,-99.9,30.09,North,5,6.0,-999.0,-999,-99.99,,,0.00,weatherlink.com 1.10,2013-11-23 08:32:00,
2013-11-23 03:47:00,-999.0,-99.9,30.09,North,5,6.0,-999.0,-999,-99.99,,,0.00,weatherlink.com 1.10,2013-11-23 08:47:00,
2013-11-23 04:02:00,-999.0,-99.9,30.09,North,5,9.0,-999.0,-999,-99.99,,,0.00,weatherlink.com 1.10,2013-11-23 09:02:00,
2013-11-23 04:17:00,-999.0,-99.9,30.09,North,5,5.0,-999.0,-999,-99.99,,,0.00,weatherlink.com 1.10,2013-11-23 09:17:00,
2013-11-23 04:32:00,-999.0,-99.9,30.09,North,5,6.0,-999.0,-999,-99.99,,,0.00,weatherlink.com 1.10,2013-11-23 09:32:00,
2013-11-23 04:47:00,-999.0,-99.9,30.08,North,5,8.0,-999.0,-999,-99.99,,,0.00,weatherlink.com 1.10,2013-11-23 09:47:00,
2013-11-23 05:02:00,-999.0,-99.9,30.08,North,5,5.0,-999.0,-999,-99.99,,,0.00,weatherlink.com 1.10,2013-11-23 10:02:00,
2013-11-23 05:17:00,-999.0,-99.9,30.09,North,5,5.0,-999.0,-999,-99.99,,,0.00,weatherlink.com 1.10,2013-11-23 10:17:00,
2013-11-23 05:33:00,-999.0,-99.9,30.08,North,5,2.0,-999.0,-999,-99.99,,,0.00,weatherlink.com 1.10,2013-11-23 10:33:00,
2013-11-23 05:48:00,-999.0,-99.9,30.08,North,5,6.0,-999.0,-999,-99.99,,,0.00,weatherlink.com 1.10,2013-11-23 10:48:00,
2013-11-23 06:03:00,-999.0,-99.9,30.08,North,5,5.0,-999.0,-999,-99.99,,,0.00,weatherlink.com 1.10,2013-11-23 11:03:00,
2013-11-23 06:18:00,-999.0,-99.9,30.08,North,5,2.0,-999.0,-999,-99.99,,,0.00,weatherlink.com 1.10,2013-11-23 11:18:00,
2013-11-23 06:33:00,-999.0,-99.9,30.08,North,5,5.0,-999.0,-999,-99.99,,,0.00,weatherlink.com 1.10,2013-11-23 11:33:00,
2013-11-23 06:48:00,-999.0,-99.9,30.08,North,5,6.0,-999.0,-999,-99.99,,,0.00,weatherlink.com 1.10,2013-11-23 11:48:00,
2013-11-23 07:03:00,-999.0,-99.9,30.09,North,5,4.0,-999.0,-999,-99.99,,,0.00,weatherlink.com 1.10,2013-11-23 12:03:00,
2013-11-23 07:18:00,-999.0,-99.9,30.09,North,5,3.0,-999.0,-999,-99.99,,,0.00,weatherlink.com 1.10,2013-11-23 12:18:00,
2013-11-23 07:33:00,63.8,60.0,30.09,North,5,6.0,-999.0,88,-99.99,,,0.01,weatherlink.com 1.10,2013-11-23 12:33:00,
2013-11-23 07:48:00,63.6,61.0,30.09,North,5,5.0,-999.0,91,-99.99,,,0.01,weatherlink.com 1.10,2013-11-23 12:48:00,
2013-11-23 08:03:00,64.3,61.0,30.09,North,5,6.0,-999.0,90,-99.99,,,0.01,weatherlink.com 1.10,2013-11-23 13:03:00,
2013-11-23 08:18:00,65.0,62.0,30.09,North,5,7.0,-999.0,89,-99.99,,,0.01,weatherlink.com 1.10,2013-11-23 13:18:00,
2013-11-23 08:33:00,67.8,62.0,30.09,North,5,9.0,-999.0,82,-99.99,,,0.01,weatherlink.com 1.10,2013-11-23 13:33:00,
2013-11-23 08:48:00,65.2,61.0,30.09,North,5,6.0,-999.0,87,-99.99,,,0.01,weatherlink.com 1.10,2013-11-23 13:48:00,
2013-11-23 09:03:00,68.3,62.0,30.09,North,5,8.0,-999.0,80,-99.99,,,0.01,weatherlink.com 1.10,2013-11-23 14:03:00,
2013-11-23 09:18:00,69.8,62.0,30.09,North,5,4.0,-999.0,77,-99.99,,,0.01,weatherlink.com 1.10,2013-11-23 14:18:00,
2013-11-23 09:33:00,79.3,64.0,30.08,North,5,3.0,-999.0,59,-99.99,,,0.01,weatherlink.com 1.10,2013-11-23 14:33:00,
2013-11-23 09:48:00,71.0,60.0,30.09,North,5,6.0,-999.0,68,-99.99,,,0.01,weatherlink.com 1.10,2013-11-23 14:48:00,
2013-11-23 10:03:00,69.2,60.0,30.08,North,5,12.0,-999.0,72,-99.99,,,0.01,weatherlink.com 1.10,2013-11-23 15:03:00,
2013-11-23 10:18:00,68.4,59.0,30.09,North,5,13.0,-999.0,72,-99.99,,,0.01,weatherlink.com 1.10,2013-11-23 15:18:00,
2013-11-23 10:33:00,66.2,58.0,30.08,North,5,7.0,-999.0,76,-99.99,,,0.01,weatherlink.com 1.10,2013-11-23 15:33:00,
2013-11-23 10:48:00,65.6,59.0,30.08,North,5,6.0,-999.0,78,-99.99,,,0.01,weatherlink.com 1.10,2013-11-23 15:48:00,
2013-11-23 11:03:00,65.3,59.0,30.08,North,5,6.0,-999.0,79,-99.99,,,0.01,weatherlink.com 1.10,2013-11-23 16:03:00,
2013-11-23 11:18:00,65.7,59.0,30.07,North,5,6.0,-999.0,78,-99.99,,,0.01,weatherlink.com 1.10,2013-11-23 16:18:00,
2013-11-23 11:33:00,65.2,59.0,30.07,North,5,5.0,-999.0,80,-99.99,,,0.01,weatherlink.com 1.10,2013-11-23 16:33:00,
2013-11-23 11:48:00,65.2,59.0,30.07,North,5,7.0,-999.0,80,-99.99,,,0.01,weatherlink.com 1.10,2013-11-23 16:48:00,
2013-11-23 12:04:00,65.1,59.0,30.06,North,5,5.0,-999.0,81,-99.99,,,0.01,weatherlink.com 1.10,2013-11-23 17:04:00,
2013-11-23 12:19:00,61.6,55.0,30.07,North,5,11.0,-999.0,79,-99.99,,,0.01,weatherlink.com 1.10,2013-11-23 17:19:00,
2013-11-23 12:34:00,58.9,54.0,30.07,North,5,12.0,-999.0,85,-99.99,,,0.01,weatherlink.com 1.10,2013-11-23 17:34:00,
2013-11-23 12:49:00,56.9,53.0,30.07,North,5,9.0,-999.0,87,-99.99,,,0.01,weatherlink.com 1.10,2013-11-23 17:49:00,
2013-11-23 13:04:00,56.8,54.0,30.07,North,5,9.0,-999.0,89,-99.99,,,0.01,weatherlink.com 1.10,2013-11-23 18:04:00,
2013-11-23 13:19:00,56.9,54.0,30.06,North,5,11.0,-999.0,89,-99.99,,,0.01,weatherlink.com 1.10,2013-11-23 18:19:00,
2013-11-23 13:34:00,56.4,54.0,30.06,North,5,8.0,-999.0,90,-99.99,,,0.01,weatherlink.com 1.10,2013-11-23 18:34:00,
2013-11-23 13:49:00,56.4,53.0,30.05,North,5,7.0,-999.0,89,-99.99,,,0.01,weatherlink.com 1.10,2013-11-23 18:49:00,
2013-11-23 14:04:00,55.1,53.0,30.05,North,5,9.0,-999.0,91,-99.99,,,0.01,weatherlink.com 1.10,2013-11-23 19:04:00,
2013-11-23 14:19:00,55.0,53.0,30.04,North,5,10.0,-999.0,92,-99.99,,,0.01,weatherlink.com 1.10,2013-11-23 19:19:00,
2013-11-23 14:34:00,54.8,53.0,30.05,North,5,7.0,-999.0,92,-99.99,,,0.01,weatherlink.com 1.10,2013-11-23 19:34:00,
2013-11-23 14:49:00,54.6,52.0,30.04,North,5,6.0,-999.0,92,-99.99,,,0.01,weatherlink.com 1.10,2013-11-23 19:49:00,
2013-11-23 15:04:00,54.4,52.0,30.04,North,5,7.0,-999.0,92,-99.99,,,0.01,weatherlink.com 1.10,2013-11-23 20:04:00,
2013-11-23 15:19:00,54.3,52.0,30.05,North,5,8.0,-999.0,92,-99.99,,,0.01,weatherlink.com 1.10,2013-11-23 20:19:00,
2013-11-23 15:34:00,54.2,52.0,30.05,North,5,5.0,-999.0,92,-99.99,,,0.01,weatherlink.com 1.10,2013-11-23 20:34:00,
2013-11-23 15:49:00,54.1,52.0,30.05,North,5,2.0,-999.0,92,-99.99,,,0.01,weatherlink.com 1.10,2013-11-23 20:49:00,
2013-11-23 16:04:00,54.1,52.0,30.07,North,5,6.0,-999.0,92,-99.99,,,0.01,weatherlink.com 1.10,2013-11-23 21:04:00,
2013-11-23 16:19:00,54.1,52.0,30.06,North,5,4.0,-999.0,92,-99.99,,,0.01,weatherlink.com 1.10,2013-11-23 21:19:00,
2013-11-23 16:34:00,53.8,52.0,30.06,North,5,3.0,-999.0,92,-99.99,,,0.01,weatherlink.com 1.10,2013-11-23 21:34:00,
2013-11-23 16:49:00,53.7,52.0,30.06,North,5,4.0,-999.0,92,-99.99,,,0.01,weatherlink.com 1.10,2013-11-23 21:49:00,
2013-11-23 17:04:00,53.5,51.0,30.07,North,5,4.0,-999.0,92,-99.99,,,0.01,weatherlink.com 1.10,2013-11-23 22:04:00,
2013-11-23 17:19:00,53.5,51.0,30.07,North,5,4.0,-999.0,92,-99.99,,,0.01,weatherlink.com 1.10,2013-11-23 22:19:00,
2013-11-23 17:34:00,53.6,51.0,30.07,North,5,4.0,-999.0,91,-99.99,,,0.01,weatherlink.com 1.10,2013-11-23 22:34:00,
2013-11-23 17:49:00,53.7,52.0,30.07,North,5,4.0,-999.0,92,-99.99,,,0.01,weatherlink.com 1.10,2013-11-23 22:49:00,
2013-11-23 18:04:00,53.8,51.0,30.07,North,5,6.0,-999.0,91,-99.99,,,0.01,weatherlink.com 1.10,2013-11-23 23:04:00,
2013-11-23 18:19:00,53.7,51.0,30.08,North,5,5.0,-999.0,91,-99.99,,,0.01,weatherlink.com 1.10,2013-11-23 23:19:00,
2013-11-23 18:34:00,53.6,51.0,30.08,North,5,3.0,-999.0,91,-99.99,,,0.01,weatherlink.com 1.10,2013-11-23 23:34:00,
2013-11-23 18:49:00,53.7,51.0,30.08,North,5,5.0,-999.0,91,-99.99,,,0.01,weatherlink.com 1.10,2013-11-23 23:49:00,
2013-11-23 19:04:00,53.6,51.0,30.08,North,5,2.0,-999.0,90,-99.99,,,0.01,weatherlink.com 1.10,2013-11-24 00:04:00,
2013-11-23 19:19:00,53.5,51.0,30.08,North,5,3.0,-999.0,90,-99.99,,,0.01,weatherlink.com 1.10,2013-11-24 00:19:00,
2013-11-23 19:34:00,53.5,51.0,30.08,North,5,3.0,-999.0,90,-99.99,,,0.01,weatherlink.com 1.10,2013-11-24 00:34:00,
2013-11-23 19:49:00,53.4,50.0,30.08,North,5,4.0,-999.0,89,-99.99,,,0.01,weatherlink.com 1.10,2013-11-24 00:49:00,
2013-11-23 20:04:00,53.3,50.0,30.09,North,5,5.0,-999.0,87,-99.99,,,0.01,weatherlink.com 1.10,2013-11-24 01:04:00,
2013-11-23 20:19:00,53.3,50.0,30.09,North,5,4.0,-999.0,87,-99.99,,,0.01,weatherlink.com 1.10,2013-11-24 01:19:00,
2013-11-23 20:34:00,53.3,50.0,30.09,North,5,4.0,-999.0,87,-99.99,,,0.01,weatherlink.com 1.10,2013-11-24 01:34:00,
2013-11-23 20:49:00,53.3,49.0,30.09,North,5,4.0,-999.0,86,-99.99,,,0.01,weatherlink.com 1.10,2013-11-24 01:49:00,
2013-11-23 21:04:00,53.2,49.0,30.09,North,5,5.0,-999.0,86,-99.99,,,0.01,weatherlink.com 1.10,2013-11-24 02:04:00,
2013-11-23 21:19:00,53.4,50.0,30.09,North,5,1.0,-999.0,87,-99.99,,,0.01,weatherlink.com 1.10,2013-11-24 02:19:00,
2013-11-23 21:34:00,53.3,50.0,30.09,North,5,4.0,-999.0,87,-99.99,,,0.01,weatherlink.com 1.10,2013-11-24 02:34:00,
2013-11-23 21:49:00,53.1,49.0,30.08,North,5,3.0,-999.0,86,-99.99,,,0.01,weatherlink.com 1.10,2013-11-24 02:49:00,
2013-11-23 22:04:00,53.1,49.0,30.09,North,5,4.0,-999.0,87,-99.99,,,0.01,weatherlink.com 1.10,2013-11-24 03:04:00,
2013-11-23 22:19:00,53.1,50.0,30.09,North,5,6.0,-999.0,89,-99.99,,,0.01,weatherlink.com 1.10,2013-11-24 03:19:00,
2013-11-23 22:34:00,52.9,50.0,30.10,North,5,6.0,-999.0,90,-99.99,,,0.01,weatherlink.com 1.10,2013-11-24 03:34:00,
2013-11-23 22:49:00,53.2,48.0,30.10,North,5,9.0,-999.0,82,-99.99,,,0.01,weatherlink.com 1.10,2013-11-24 03:49:00,
2013-11-23 23:04:00,53.2,45.0,30.10,North,5,11.0,-999.0,73,-99.99,,,0.01,weatherlink.com 1.10,2013-11-24 04:04:00,
2013-11-23 23:19:00,52.8,39.0,30.10,North,5,14.0,-999.0,61,-99.99,,,0.01,weatherlink.com 1.10,2013-11-24 04:19:00,
2013-11-23 23:34:00,52.1,40.0,30.10,North,5,6.0,-999.0,64,-99.99,,,0.01,weatherlink.com 1.10,2013-11-24 04:34:00,
2013-11-23 23:49:00,51.2,39.0,30.11,North,5,11.0,-999.0,64,-99.99,,,0.01,weatherlink.com 1.10,2013-11-24 04:49:00,